Nautilus — OUYX2 — position and weather

sailwx.info

Track history (hours):
 
Tides and Currents Weather Stations Pressure Air Temp Water Temp Dewpoint Dewpoint Depression Visibility Wind Speed Wind Dir Waves Ship Positions

Nautilus

Last reported at 2017-Aug-20 07:48 UTC. Time now 2017-Aug-20 19:06 UTC.
Position N 58°21' E 011°26'.

Length 120 m; draft 5 m.

Type: Ship. MMSI: 219425000.

Date/timePositionNaut miles runAvg speedWind from/ knotsBaromVisibWave heightAir tempDewpointWater temp
2017-Aug-20 07:48N 58°21' E 011°26'0 0.7
2017-Aug-20 07:30N 58°21' E 011°26'3 6.3
2017-Aug-20 07:00N 58°19' E 011°22'713.8
2017-Aug-20 06:30N 58°15' E 011°12'3 1.6
2017-Aug-20 04:28N 58°11' E 011°12'0 0.0
2017-Aug-20 03:52N 58°11' E 011°12'0 0.0
2017-Aug-20 03:22N 58°11' E 011°12'0 0.0
2017-Aug-20 02:58N 58°11' E 011°12'0 0.0
2017-Aug-20 02:28N 58°11' E 011°12'0 0.0
2017-Aug-20 01:40N 58°11' E 011°12'0 0.0
2017-Aug-20 01:10N 58°11' E 011°12'0 0.0
2017-Aug-19 17:07N 58°11' E 011°12'0 0.0
2017-Aug-19 15:34N 58°11' E 011°12'0 0.7
2017-Aug-19 15:29N 58°11' E 011°11'4 7.6
2017-Aug-19 14:59N 58°07' E 011°14'6 5.5
2017-Aug-19 14:00N 58°02' E 011°16'3 4.8
2017-Aug-19 13:27N 57°60' E 011°17'2 5.2
2017-Aug-19 13:00N 57°57' E 011°18'3 5.4
2017-Aug-19 12:25N 57°54' E 011°18'2 4.8
2017-Aug-19 11:58N 57°52' E 011°19'2 4.6
2017-Aug-19 11:30N 57°50' E 011°20'2 4.7
2017-Aug-19 11:00N 57°48' E 011°21'2 4.4
2017-Aug-19 10:30N 57°45' E 011°21'2 4.4
2017-Aug-19 10:00N 57°43' E 011°22'2 4.6
2017-Aug-19 09:30N 57°41' E 011°23'3 4.8
2017-Aug-19 08:58N 57°38' E 011°24'3 6.0
2017-Aug-19 08:28N 57°36' E 011°25'3 6.4
2017-Aug-19 08:00N 57°33' E 011°28'3 6.2
2017-Aug-19 07:30N 57°31' E 011°31'3 5.8
2017-Aug-19 07:00N 57°28' E 011°34'3 5.4
2017-Aug-19 06:31N 57°26' E 011°37'3 5.4
2017-Aug-19 06:00N 57°24' E 011°40'3 5.7
2017-Aug-19 05:30N 57°21' E 011°43'3 6.4
2017-Aug-19 05:00N 57°19' E 011°46'3 6.3
2017-Aug-19 04:29N 57°16' E 011°50'3 6.3
2017-Aug-19 03:58N 57°13' E 011°53'4 5.7
2017-Aug-19 03:17N 57°09' E 011°55'2 5.9
2017-Aug-19 02:56N 57°08' E 011°56'4 6.1
2017-Aug-19 02:16N 57°04' E 011°59'7 6.9
2017-Aug-19 01:17N 56°57' E 012°03'2 7.0
2017-Aug-19 00:57N 56°55' E 012°03'3 6.9
2017-Aug-19 00:27N 56°52' E 012°05'7 6.3
2017-Aug-18 23:20N 56°45' E 012°09'29 7.0
2017-Aug-18 19:14N 56°18' E 012°24'2 6.3
2017-Aug-18 18:58N 56°16' E 012°25'3 6.8
2017-Aug-18 18:30N 56°13' E 012°28'3 6.4
2017-Aug-18 18:00N 56°10' E 012°29'3 7.0
2017-Aug-18 17:31N 56°07' E 012°33'4 7.0
2017-Aug-18 17:00N 56°05' E 012°37'4 7.3
2017-Aug-18 16:30N 56°02' E 012°41'1 1.3
2017-Aug-18 16:00N 56°02' E 012°42'0 0.0
2017-Aug-18 15:30N 56°02' E 012°42'0 0.0
2017-Aug-18 15:00N 56°02' E 012°42'0 0.0
2017-Aug-18 14:30N 56°02' E 012°42'0 0.0
2017-Aug-18 13:30N 56°02' E 012°42'0 0.0
2017-Aug-18 13:00N 56°02' E 012°42'0 0.0
2017-Aug-18 12:30N 56°02' E 012°42'0 0.0
2017-Aug-18 12:00N 56°02' E 012°42'0 0.0
2017-Aug-18 11:30N 56°02' E 012°42'0 0.1
2017-Aug-18 11:00N 56°02' E 012°42'0 0.0
2017-Aug-18 10:30N 56°02' E 012°42'0 0.0
2017-Aug-18 10:00N 56°02' E 012°42'0 0.0
2017-Aug-18 09:30N 56°02' E 012°42'0 0.0
2017-Aug-18 09:00N 56°02' E 012°42'0 0.0
2017-Aug-18 08:30N 56°02' E 012°42'0 0.0
2017-Aug-18 08:00N 56°02' E 012°42'0 0.0
2017-Aug-18 07:30N 56°02' E 012°42'0 0.0
2017-Aug-18 07:00N 56°02' E 012°42'0 0.0
2017-Aug-18 06:24N 56°02' E 012°42'0 0.0
2017-Aug-18 05:57N 56°02' E 012°42'0 0.0
2017-Aug-18 05:30N 56°02' E 012°42'0 0.0
2017-Aug-18 05:00N 56°02' E 012°42'0 0.0
2017-Aug-18 04:30N 56°02' E 012°42'0 0.4
2017-Aug-18 04:00N 56°01' E 012°42'1 2.4
2017-Aug-18 03:30N 56°00' E 012°41'5 9.1
2017-Aug-18 03:00N 56°04' E 012°37'5 9.2
2017-Aug-18 02:30N 56°07' E 012°30'4 9.0
2017-Aug-18 02:01N 56°11' E 012°26'510.5
2017-Aug-18 01:31N 56°16' E 012°23'5410.2
2017-Aug-17 20:12N 57°08' E 011°56'310.6
2017-Aug-17 19:53N 57°11' E 011°54'410.1
2017-Aug-17 19:29N 57°15' E 011°51'510.4
2017-Aug-17 19:00N 57°19' E 011°46'511.0
2017-Aug-17 18:30N 57°23' E 011°40'611.2
2017-Aug-17 18:00N 57°28' E 011°34'611.4
2017-Aug-17 17:30N 57°33' E 011°28'511.0
2017-Aug-17 17:01N 57°38' E 011°24'611.0
2017-Aug-17 16:30N 57°43' E 011°22'611.2
2017-Aug-17 16:01N 57°49' E 011°20'611.6
2017-Aug-17 15:30N 57°54' E 011°18'611.4
2017-Aug-17 15:00N 58°00' E 011°17'510.9
2017-Aug-17 14:30N 58°05' E 011°15'510.0
2017-Aug-17 13:58N 58°11' E 011°13'510.6
2017-Aug-17 13:29N 58°16' E 011°14'511.1
2017-Aug-17 13:00N 58°19' E 011°22'3 0.4
2017-Aug-17 04:29N 58°21' E 011°26'0 0.0
2017-Aug-16 21:04N 58°21' E 011°26'0 0.2
2017-Aug-16 20:59N 58°21' E 011°26'1 1.7
2017-Aug-16 20:27N 58°21' E 011°24'2 5.1
2017-Aug-16 20:00N 58°19' E 011°22'3 6.3
2017-Aug-16 19:30N 58°17' E 011°17'3 6.8
2017-Aug-16 19:00N 58°17' E 011°11'3 6.2
2017-Aug-16 18:30N 58°18' E 011°06'3 6.2
2017-Aug-16 17:59N 58°21' E 011°03'3 7.2
2017-Aug-16 17:30N 58°24' E 010°60'4 7.6
2017-Aug-16 17:00N 58°27' E 010°56'4 7.2
2017-Aug-16 16:30N 58°31' E 010°54'3 6.9
2017-Aug-16 16:00N 58°34' E 010°52'3 6.9
2017-Aug-16 15:30N 58°37' E 010°50'4 7.0
2017-Aug-16 15:00N 58°41' E 010°48'3 6.6
2017-Aug-16 14:30N 58°44' E 010°46'3 6.7
2017-Aug-16 14:00N 58°47' E 010°45'4 7.0
2017-Aug-16 13:30N 58°50' E 010°42'510.4
2017-Aug-16 13:00N 58°55' E 010°40'612.3
2017-Aug-16 12:30N 59°01' E 010°37'612.0
2017-Aug-16 12:00N 59°07' E 010°33'612.8
2017-Aug-16 11:30N 59°13' E 010°37'713.6
2017-Aug-16 11:00N 59°20' E 010°35'713.5
2017-Aug-16 10:30N 59°26' E 010°33'713.9
2017-Aug-16 10:00N 59°33' E 010°37'613.0
2017-Aug-16 09:30N 59°40' E 010°37'510.0
2017-Aug-16 09:00N 59°44' E 010°33'713.6
2017-Aug-16 08:30N 59°51' E 010°37'5 9.8
2017-Aug-16 08:00N 59°53' E 010°46'0 0.0
2017-Aug-16 07:29N 59°53' E 010°46'0 0.0
2017-Aug-16 06:59N 59°53' E 010°46'0 0.0
2017-Aug-16 06:29N 59°53' E 010°46'0 0.0
2017-Aug-16 05:59N 59°53' E 010°46'0 0.0
2017-Aug-16 05:29N 59°53' E 010°46'0 0.0
2017-Aug-16 04:59N 59°53' E 010°46'0 0.0
2017-Aug-16 04:29N 59°53' E 010°46'0 0.0
2017-Aug-16 03:59N 59°53' E 010°46'0 0.0
2017-Aug-16 03:29N 59°53' E 010°46'0 0.0
2017-Aug-16 02:59N 59°53' E 010°46'0 0.0
2017-Aug-16 02:29N 59°53' E 010°46'0 0.0
2017-Aug-16 01:59N 59°53' E 010°46'0 0.0
2017-Aug-16 01:29N 59°53' E 010°46'0 0.0
2017-Aug-16 00:59N 59°53' E 010°46'0 0.0
2017-Aug-16 00:29N 59°53' E 010°46'0 0.0
2017-Aug-15 23:59N 59°53' E 010°46'0 0.0
2017-Aug-15 23:29N 59°53' E 010°46'0 0.0
2017-Aug-15 22:59N 59°53' E 010°46'0 0.0
2017-Aug-15 22:29N 59°53' E 010°46'0 0.0
2017-Aug-15 21:59N 59°53' E 010°46'0 0.0
2017-Aug-15 21:29N 59°53' E 010°46'0 0.1
2017-Aug-15 20:59N 59°53' E 010°46'2 3.2
2017-Aug-15 20:30N 59°53' E 010°43'510.9
2017-Aug-15 20:00N 59°49' E 010°35'612.1
2017-Aug-15 19:30N 59°43' E 010°35'611.4
2017-Aug-15 19:00N 59°37' E 010°38'713.6
2017-Aug-15 18:30N 59°31' E 010°35'713.7
2017-Aug-15 18:00N 59°24' E 010°35'714.0
2017-Aug-15 17:31N 59°17' E 010°37'713.8
2017-Aug-15 17:00N 59°10' E 010°39'612.4
2017-Aug-15 16:31N 59°05' E 010°31'611.7
2017-Aug-15 16:01N 59°01' E 010°24'510.8
2017-Aug-15 15:31N 59°03' E 010°15'3 0.3
2017-Aug-15 06:25N 59°06' E 010°14'0 1.2
2017-Aug-15 06:00N 59°06' E 010°14'4 9.1
2017-Aug-15 05:30N 59°02' E 010°17'611.7
2017-Aug-15 05:00N 59°02' E 010°28'612.5
2017-Aug-15 04:30N 59°07' E 010°34'611.9
2017-Aug-15 04:00N 59°13' E 010°36'612.5
2017-Aug-15 03:31N 59°19' E 010°32'1 1.8
2017-Aug-15 03:00N 59°20' E 010°31'0 0.0
2017-Aug-15 02:28N 59°20' E 010°31'0 0.0
2017-Aug-15 01:58N 59°20' E 010°31'0 0.0
2017-Aug-15 01:28N 59°20' E 010°31'0 0.0
2017-Aug-15 00:58N 59°20' E 010°31'0 0.0
2017-Aug-15 00:28N 59°20' E 010°31'0 0.0
2017-Aug-14 23:58N 59°20' E 010°31'0 0.0
2017-Aug-14 23:28N 59°20' E 010°31'0 0.0
2017-Aug-14 22:58N 59°20' E 010°31'0 0.0
2017-Aug-14 22:28N 59°20' E 010°31'0 0.0
2017-Aug-14 21:58N 59°20' E 010°31'0 0.0
2017-Aug-14 21:28N 59°20' E 010°31'0 0.0
2017-Aug-14 20:58N 59°20' E 010°31'0 0.0
2017-Aug-14 20:28N 59°20' E 010°31'0 0.0
2017-Aug-14 19:58N 59°20' E 010°31'0 0.0
2017-Aug-14 19:28N 59°20' E 010°31'0 0.0
2017-Aug-14 18:58N 59°20' E 010°31'0 0.0
2017-Aug-14 18:28N 59°20' E 010°31'0 0.0
2017-Aug-14 17:58N 59°20' E 010°31'0 0.0
2017-Aug-14 17:28N 59°20' E 010°31'0 0.0
2017-Aug-14 16:58N 59°20' E 010°31'0 0.0
2017-Aug-14 16:28N 59°20' E 010°31'0 0.0
2017-Aug-14 15:58N 59°20' E 010°31'0 0.0
2017-Aug-14 15:28N 59°20' E 010°31'0 0.0
2017-Aug-14 14:58N 59°20' E 010°31'0 0.0
2017-Aug-14 14:28N 59°20' E 010°31'0 0.0
2017-Aug-14 13:58N 59°20' E 010°31'0 0.0
2017-Aug-14 13:28N 59°20' E 010°31'0 0.0
2017-Aug-14 12:58N 59°20' E 010°31'0 0.0
2017-Aug-14 12:28N 59°20' E 010°31'0 0.0
2017-Aug-14 11:58N 59°20' E 010°31'0 0.0
2017-Aug-14 11:28N 59°20' E 010°31'0 0.0
2017-Aug-14 11:00N 59°20' E 010°31'1 1.5
2017-Aug-14 10:30N 59°20' E 010°32'0 0.1
2017-Aug-14 10:00N 59°20' E 010°32'0 0.0
2017-Aug-14 09:30N 59°20' E 010°32'0 0.0
2017-Aug-14 09:00N 59°20' E 010°32'0 0.0
2017-Aug-14 08:30N 59°20' E 010°32'0 0.1
2017-Aug-14 08:00N 59°20' E 010°32'0 0.1
2017-Aug-14 07:30N 59°20' E 010°32'0 0.0
2017-Aug-14 07:00N 59°20' E 010°32'0 0.0
2017-Aug-14 06:30N 59°20' E 010°32'0 0.0
2017-Aug-14 06:00N 59°20' E 010°32'0 0.0
2017-Aug-14 05:30N 59°20' E 010°32'2 4.2
2017-Aug-14 05:01N 59°18' E 010°33'713.1
2017-Aug-14 04:30N 59°12' E 010°36'612.6
2017-Aug-14 04:01N 59°06' E 010°35'4 7.6
2017-Aug-14 03:30N 59°02' E 010°36'5 9.3
2017-Aug-14 03:01N 58°57' E 010°38'5 9.3
2017-Aug-14 02:30N 58°53' E 010°41'5 9.6
2017-Aug-14 02:01N 58°48' E 010°44'611.9
2017-Aug-14 01:31N 58°43' E 010°47'611.9
2017-Aug-14 01:00N 58°37' E 010°50'612.3
2017-Aug-14 00:30N 58°31' E 010°53'713.2
2017-Aug-14 00:00N 58°25' E 010°57'612.9
2017-Aug-13 23:30N 58°18' E 011°00'612.4
2017-Aug-13 23:00N 58°12' E 011°04'612.0
2017-Aug-13 22:30N 58°07' E 011°07'611.2
2017-Aug-13 21:59N 58°01' E 011°10'611.7
2017-Aug-13 21:29N 57°56' E 011°14'511.5
2017-Aug-13 21:00N 57°50' E 011°16'611.4
2017-Aug-13 20:30N 57°45' E 011°19'611.5
2017-Aug-13 20:00N 57°39' E 011°23'611.3
2017-Aug-13 19:29N 57°34' E 011°27'510.8
2017-Aug-13 19:01N 57°30' E 011°33'611.4
2017-Aug-13 18:30N 57°25' E 011°39'611.5
2017-Aug-13 18:00N 57°20' E 011°45'611.8
2017-Aug-13 17:30N 57°16' E 011°51'612.1
2017-Aug-13 17:00N 57°10' E 011°55'811.8
2017-Aug-13 16:19N 57°02' E 011°60'4911.2
2017-Aug-13 11:56N 56°15' E 012°27'511.1
2017-Aug-13 11:30N 56°11' E 012°30'510.6
2017-Aug-13 11:00N 56°06' E 012°34'5 9.5
2017-Aug-13 10:30N 56°03' E 012°40'5 9.0
2017-Aug-13 10:01N 55°58' E 012°42'510.7
2017-Aug-13 09:31N 55°53' E 012°44'612.0
2017-Aug-13 09:01N 55°47' E 012°43'612.2
2017-Aug-13 08:31N 55°41' E 012°41'510.9
2017-Aug-13 08:01N 55°36' E 012°42'611.5
2017-Aug-13 07:31N 55°30' E 012°43'612.6
2017-Aug-13 07:01N 55°24' E 012°41'611.5
2017-Aug-13 06:30N 55°18' E 012°43'612.5
2017-Aug-13 06:00N 55°16' E 012°53'612.0
2017-Aug-13 05:30N 55°16' E 013°04'612.2
2017-Aug-13 05:00N 55°15' E 013°14'612.4
2017-Aug-13 04:29N 55°15' E 013°25'1112.0
2017-Aug-13 03:34N 55°14' E 013°45'211.8
2017-Aug-13 03:22N 55°14' E 013°49'411.6
2017-Aug-13 03:00N 55°14' E 013°56'611.6
2017-Aug-13 02:30N 55°14' E 014°07'611.3
2017-Aug-13 02:01N 55°14' E 014°16'611.5
2017-Aug-13 01:31N 55°19' E 014°23'611.7
2017-Aug-13 01:00N 55°23' E 014°29'611.7
2017-Aug-13 00:31N 55°27' E 014°36'612.0
2017-Aug-13 00:01N 55°30' E 014°45'612.1
2017-Aug-12 23:30N 55°33' E 014°55'611.9
2017-Aug-12 23:01N 55°36' E 015°04'611.8
2017-Aug-12 22:30N 55°39' E 015°13'611.7
2017-Aug-12 21:59N 55°42' E 015°23'150 9.4
2017-Aug-12 05:54N 57°38' E 018°16'0 0.0
2017-Aug-12 05:30N 57°38' E 018°16'0 0.0
2017-Aug-12 04:57N 57°38' E 018°16'0 0.0
2017-Aug-12 02:03N 57°38' E 018°16'0 0.0
2017-Aug-12 01:54N 57°38' E 018°16'0 0.0
2017-Aug-12 01:30N 57°38' E 018°16'0 0.0
2017-Aug-12 01:00N 57°38' E 018°16'0 0.0
2017-Aug-12 00:30N 57°38' E 018°16'0 0.0
2017-Aug-12 00:00N 57°38' E 018°16'0 0.0
2017-Aug-11 23:30N 57°38' E 018°16'0 0.0
2017-Aug-11 23:00N 57°38' E 018°16'0 0.0
2017-Aug-11 22:27N 57°38' E 018°16'0 0.0
2017-Aug-11 22:00N 57°38' E 018°16'0 0.0
2017-Aug-11 21:30N 57°38' E 018°16'0 0.0
2017-Aug-11 21:00N 57°38' E 018°16'135 7.5
2017-Aug-11 03:04N 55°48' E 015°54'112.1
2017-Aug-11 03:00N 55°47' E 015°53'612.2
2017-Aug-11 02:29N 55°44' E 015°43'612.4
2017-Aug-11 02:00N 55°41' E 015°34'612.3
2017-Aug-11 01:29N 55°38' E 015°24'612.1
2017-Aug-11 01:00N 55°36' E 015°15'612.1
2017-Aug-11 00:31N 55°33' E 015°06'611.9
2017-Aug-11 00:00N 55°30' E 014°56'612.0
2017-Aug-10 23:31N 55°27' E 014°47'612.2
2017-Aug-10 23:00N 55°24' E 014°38'612.1
2017-Aug-10 22:30N 55°19' E 014°31'612.1
2017-Aug-10 22:00N 55°15' E 014°24'611.3
2017-Aug-10 21:30N 55°11' E 014°16'612.3
2017-Aug-10 21:01N 55°11' E 014°06'612.4
2017-Aug-10 20:30N 55°11' E 013°55'612.5
2017-Aug-10 20:00N 55°11' E 013°44'712.6
2017-Aug-10 19:27N 55°11' E 013°32'712.6
2017-Aug-10 18:54N 55°12' E 013°20'812.3
2017-Aug-10 18:17N 55°12' E 013°06'312.3
2017-Aug-10 18:00N 55°13' E 013°00'612.2
2017-Aug-10 17:30N 55°15' E 012°51'612.2
2017-Aug-10 17:00N 55°17' E 012°41'510.1
2017-Aug-10 16:30N 55°22' E 012°39'612.0
2017-Aug-10 16:00N 55°28' E 012°41'5 9.8
2017-Aug-10 15:30N 55°32' E 012°46'4 7.9
2017-Aug-10 15:00N 55°35' E 012°51'4 8.5
2017-Aug-10 14:30N 55°38' E 012°56'510.7
2017-Aug-10 14:00N 55°43' E 012°52'612.1
2017-Aug-10 13:30N 55°48' E 012°47'612.0
2017-Aug-10 13:00N 55°53' E 012°40'510.5
2017-Aug-10 12:30N 55°58' E 012°41'611.7
2017-Aug-10 12:00N 56°04' E 012°37'611.8
2017-Aug-10 11:30N 56°08' E 012°29'611.2
2017-Aug-10 11:00N 56°13' E 012°25'  
Track history (hours):
 
Tides and Currents Weather Stations Pressure Air Temp Water Temp Dewpoint Dewpoint Depression Visibility Wind Speed Wind Dir Waves Ship Positions

Nautilus

Last reported at 2017-Aug-20 07:48 UTC. Time now 2017-Aug-20 19:06 UTC.
Position N 58°21' E 011°26'.

Length 120 m; draft 5 m.

Type: Ship. MMSI: 219425000.

Date/timePositionNaut miles runAvg speedWind from/ knotsBaromVisibWave heightAir tempDewpointWater temp
2017-Aug-20 07:48N 58°21' E 011°26'0 0.7
2017-Aug-20 07:30N 58°21' E 011°26'3 6.3
2017-Aug-20 07:00N 58°19' E 011°22'713.8
2017-Aug-20 06:30N 58°15' E 011°12'3 1.6
2017-Aug-20 04:28N 58°11' E 011°12'0 0.0
2017-Aug-20 03:52N 58°11' E 011°12'0 0.0
2017-Aug-20 03:22N 58°11' E 011°12'0 0.0
2017-Aug-20 02:58N 58°11' E 011°12'0 0.0
2017-Aug-20 02:28N 58°11' E 011°12'0 0.0
2017-Aug-20 01:40N 58°11' E 011°12'0 0.0
2017-Aug-20 01:10N 58°11' E 011°12'0 0.0
2017-Aug-19 17:07N 58°11' E 011°12'0 0.0
2017-Aug-19 15:34N 58°11' E 011°12'0 0.7
2017-Aug-19 15:29N 58°11' E 011°11'4 7.6
2017-Aug-19 14:59N 58°07' E 011°14'6 5.5
2017-Aug-19 14:00N 58°02' E 011°16'3 4.8
2017-Aug-19 13:27N 57°60' E 011°17'2 5.2
2017-Aug-19 13:00N 57°57' E 011°18'3 5.4
2017-Aug-19 12:25N 57°54' E 011°18'2 4.8
2017-Aug-19 11:58N 57°52' E 011°19'2 4.6
2017-Aug-19 11:30N 57°50' E 011°20'2 4.7
2017-Aug-19 11:00N 57°48' E 011°21'2 4.4
2017-Aug-19 10:30N 57°45' E 011°21'2 4.4
2017-Aug-19 10:00N 57°43' E 011°22'2 4.6
2017-Aug-19 09:30N 57°41' E 011°23'3 4.8
2017-Aug-19 08:58N 57°38' E 011°24'3 6.0
2017-Aug-19 08:28N 57°36' E 011°25'3 6.4
2017-Aug-19 08:00N 57°33' E 011°28'3 6.2
2017-Aug-19 07:30N 57°31' E 011°31'3 5.8
2017-Aug-19 07:00N 57°28' E 011°34'3 5.4
2017-Aug-19 06:31N 57°26' E 011°37'3 5.4
2017-Aug-19 06:00N 57°24' E 011°40'3 5.7
2017-Aug-19 05:30N 57°21' E 011°43'3 6.4
2017-Aug-19 05:00N 57°19' E 011°46'3 6.3
2017-Aug-19 04:29N 57°16' E 011°50'3 6.3
2017-Aug-19 03:58N 57°13' E 011°53'4 5.7
2017-Aug-19 03:17N 57°09' E 011°55'2 5.9
2017-Aug-19 02:56N 57°08' E 011°56'4 6.1
2017-Aug-19 02:16N 57°04' E 011°59'7 6.9
2017-Aug-19 01:17N 56°57' E 012°03'2 7.0
2017-Aug-19 00:57N 56°55' E 012°03'3 6.9
2017-Aug-19 00:27N 56°52' E 012°05'7 6.3
2017-Aug-18 23:20N 56°45' E 012°09'29 7.0
2017-Aug-18 19:14N 56°18' E 012°24'2 6.3
2017-Aug-18 18:58N 56°16' E 012°25'3 6.8
2017-Aug-18 18:30N 56°13' E 012°28'3 6.4
2017-Aug-18 18:00N 56°10' E 012°29'3 7.0
2017-Aug-18 17:31N 56°07' E 012°33'4 7.0
2017-Aug-18 17:00N 56°05' E 012°37'4 7.3
2017-Aug-18 16:30N 56°02' E 012°41'1 1.3
2017-Aug-18 16:00N 56°02' E 012°42'0 0.0
2017-Aug-18 15:30N 56°02' E 012°42'0 0.0
2017-Aug-18 15:00N 56°02' E 012°42'0 0.0
2017-Aug-18 14:30N 56°02' E 012°42'0 0.0
2017-Aug-18 13:30N 56°02' E 012°42'0 0.0
2017-Aug-18 13:00N 56°02' E 012°42'0 0.0
2017-Aug-18 12:30N 56°02' E 012°42'0 0.0
2017-Aug-18 12:00N 56°02' E 012°42'0 0.0
2017-Aug-18 11:30N 56°02' E 012°42'0 0.1
2017-Aug-18 11:00N 56°02' E 012°42'0 0.0
2017-Aug-18 10:30N 56°02' E 012°42'0 0.0
2017-Aug-18 10:00N 56°02' E 012°42'0 0.0
2017-Aug-18 09:30N 56°02' E 012°42'0 0.0
2017-Aug-18 09:00N 56°02' E 012°42'0 0.0
2017-Aug-18 08:30N 56°02' E 012°42'0 0.0
2017-Aug-18 08:00N 56°02' E 012°42'0 0.0
2017-Aug-18 07:30N 56°02' E 012°42'0 0.0
2017-Aug-18 07:00N 56°02' E 012°42'0 0.0
2017-Aug-18 06:24N 56°02' E 012°42'0 0.0
2017-Aug-18 05:57N 56°02' E 012°42'0 0.0
2017-Aug-18 05:30N 56°02' E 012°42'0 0.0
2017-Aug-18 05:00N 56°02' E 012°42'0 0.0
2017-Aug-18 04:30N 56°02' E 012°42'0 0.4
2017-Aug-18 04:00N 56°01' E 012°42'1 2.4
2017-Aug-18 03:30N 56°00' E 012°41'5 9.1
2017-Aug-18 03:00N 56°04' E 012°37'5 9.2
2017-Aug-18 02:30N 56°07' E 012°30'4 9.0
2017-Aug-18 02:01N 56°11' E 012°26'510.5
2017-Aug-18 01:31N 56°16' E 012°23'5410.2
2017-Aug-17 20:12N 57°08' E 011°56'310.6
2017-Aug-17 19:53N 57°11' E 011°54'410.1
2017-Aug-17 19:29N 57°15' E 011°51'510.4
2017-Aug-17 19:00N 57°19' E 011°46'511.0
2017-Aug-17 18:30N 57°23' E 011°40'611.2
2017-Aug-17 18:00N 57°28' E 011°34'611.4
2017-Aug-17 17:30N 57°33' E 011°28'511.0
2017-Aug-17 17:01N 57°38' E 011°24'611.0
2017-Aug-17 16:30N 57°43' E 011°22'611.2
2017-Aug-17 16:01N 57°49' E 011°20'611.6
2017-Aug-17 15:30N 57°54' E 011°18'611.4
2017-Aug-17 15:00N 58°00' E 011°17'510.9
2017-Aug-17 14:30N 58°05' E 011°15'510.0
2017-Aug-17 13:58N 58°11' E 011°13'510.6
2017-Aug-17 13:29N 58°16' E 011°14'511.1
2017-Aug-17 13:00N 58°19' E 011°22'3 0.4
2017-Aug-17 04:29N 58°21' E 011°26'0 0.0
2017-Aug-16 21:04N 58°21' E 011°26'0 0.2
2017-Aug-16 20:59N 58°21' E 011°26'1 1.7
2017-Aug-16 20:27N 58°21' E 011°24'2 5.1
2017-Aug-16 20:00N 58°19' E 011°22'3 6.3
2017-Aug-16 19:30N 58°17' E 011°17'3 6.8
2017-Aug-16 19:00N 58°17' E 011°11'3 6.2
2017-Aug-16 18:30N 58°18' E 011°06'3 6.2
2017-Aug-16 17:59N 58°21' E 011°03'3 7.2
2017-Aug-16 17:30N 58°24' E 010°60'4 7.6
2017-Aug-16 17:00N 58°27' E 010°56'4 7.2
2017-Aug-16 16:30N 58°31' E 010°54'3 6.9
2017-Aug-16 16:00N 58°34' E 010°52'3 6.9
2017-Aug-16 15:30N 58°37' E 010°50'4 7.0
2017-Aug-16 15:00N 58°41' E 010°48'3 6.6
2017-Aug-16 14:30N 58°44' E 010°46'3 6.7
2017-Aug-16 14:00N 58°47' E 010°45'4 7.0
2017-Aug-16 13:30N 58°50' E 010°42'510.4
2017-Aug-16 13:00N 58°55' E 010°40'612.3
2017-Aug-16 12:30N 59°01' E 010°37'612.0
2017-Aug-16 12:00N 59°07' E 010°33'612.8
2017-Aug-16 11:30N 59°13' E 010°37'713.6
2017-Aug-16 11:00N 59°20' E 010°35'713.5
2017-Aug-16 10:30N 59°26' E 010°33'713.9
2017-Aug-16 10:00N 59°33' E 010°37'613.0
2017-Aug-16 09:30N 59°40' E 010°37'510.0
2017-Aug-16 09:00N 59°44' E 010°33'713.6
2017-Aug-16 08:30N 59°51' E 010°37'5 9.8
2017-Aug-16 08:00N 59°53' E 010°46'0 0.0
2017-Aug-16 07:29N 59°53' E 010°46'0 0.0
2017-Aug-16 06:59N 59°53' E 010°46'0 0.0
2017-Aug-16 06:29N 59°53' E 010°46'0 0.0
2017-Aug-16 05:59N 59°53' E 010°46'0 0.0
2017-Aug-16 05:29N 59°53' E 010°46'0 0.0
2017-Aug-16 04:59N 59°53' E 010°46'0 0.0
2017-Aug-16 04:29N 59°53' E 010°46'0 0.0
2017-Aug-16 03:59N 59°53' E 010°46'0 0.0
2017-Aug-16 03:29N 59°53' E 010°46'0 0.0
2017-Aug-16 02:59N 59°53' E 010°46'0 0.0
2017-Aug-16 02:29N 59°53' E 010°46'0 0.0
2017-Aug-16 01:59N 59°53' E 010°46'0 0.0
2017-Aug-16 01:29N 59°53' E 010°46'0 0.0
2017-Aug-16 00:59N 59°53' E 010°46'0 0.0
2017-Aug-16 00:29N 59°53' E 010°46'0 0.0
2017-Aug-15 23:59N 59°53' E 010°46'0 0.0
2017-Aug-15 23:29N 59°53' E 010°46'0 0.0
2017-Aug-15 22:59N 59°53' E 010°46'0 0.0
2017-Aug-15 22:29N 59°53' E 010°46'0 0.0
2017-Aug-15 21:59N 59°53' E 010°46'0 0.0
2017-Aug-15 21:29N 59°53' E 010°46'0 0.1
2017-Aug-15 20:59N 59°53' E 010°46'2 3.2
2017-Aug-15 20:30N 59°53' E 010°43'510.9
2017-Aug-15 20:00N 59°49' E 010°35'612.1
2017-Aug-15 19:30N 59°43' E 010°35'611.4
2017-Aug-15 19:00N 59°37' E 010°38'713.6
2017-Aug-15 18:30N 59°31' E 010°35'713.7
2017-Aug-15 18:00N 59°24' E 010°35'714.0
2017-Aug-15 17:31N 59°17' E 010°37'713.8
2017-Aug-15 17:00N 59°10' E 010°39'612.4
2017-Aug-15 16:31N 59°05' E 010°31'611.7
2017-Aug-15 16:01N 59°01' E 010°24'510.8
2017-Aug-15 15:31N 59°03' E 010°15'3 0.3
2017-Aug-15 06:25N 59°06' E 010°14'0 1.2
2017-Aug-15 06:00N 59°06' E 010°14'4 9.1
2017-Aug-15 05:30N 59°02' E 010°17'611.7
2017-Aug-15 05:00N 59°02' E 010°28'612.5
2017-Aug-15 04:30N 59°07' E 010°34'611.9
2017-Aug-15 04:00N 59°13' E 010°36'612.5
2017-Aug-15 03:31N 59°19' E 010°32'1 1.8
2017-Aug-15 03:00N 59°20' E 010°31'0 0.0
2017-Aug-15 02:28N 59°20' E 010°31'0 0.0
2017-Aug-15 01:58N 59°20' E 010°31'0 0.0
2017-Aug-15 01:28N 59°20' E 010°31'0 0.0
2017-Aug-15 00:58N 59°20' E 010°31'0 0.0
2017-Aug-15 00:28N 59°20' E 010°31'0 0.0
2017-Aug-14 23:58N 59°20' E 010°31'0 0.0
2017-Aug-14 23:28N 59°20' E 010°31'0 0.0
2017-Aug-14 22:58N 59°20' E 010°31'0 0.0
2017-Aug-14 22:28N 59°20' E 010°31'0 0.0
2017-Aug-14 21:58N 59°20' E 010°31'0 0.0
2017-Aug-14 21:28N 59°20' E 010°31'0 0.0
2017-Aug-14 20:58N 59°20' E 010°31'0 0.0
2017-Aug-14 20:28N 59°20' E 010°31'0 0.0
2017-Aug-14 19:58N 59°20' E 010°31'0 0.0
2017-Aug-14 19:28N 59°20' E 010°31'0 0.0
2017-Aug-14 18:58N 59°20' E 010°31'0 0.0
2017-Aug-14 18:28N 59°20' E 010°31'0 0.0
2017-Aug-14 17:58N 59°20' E 010°31'0 0.0
2017-Aug-14 17:28N 59°20' E 010°31'0 0.0
2017-Aug-14 16:58N 59°20' E 010°31'0 0.0
2017-Aug-14 16:28N 59°20' E 010°31'0 0.0
2017-Aug-14 15:58N 59°20' E 010°31'0 0.0
2017-Aug-14 15:28N 59°20' E 010°31'0 0.0
2017-Aug-14 14:58N 59°20' E 010°31'0 0.0
2017-Aug-14 14:28N 59°20' E 010°31'0 0.0
2017-Aug-14 13:58N 59°20' E 010°31'0 0.0
2017-Aug-14 13:28N 59°20' E 010°31'0 0.0
2017-Aug-14 12:58N 59°20' E 010°31'0 0.0
2017-Aug-14 12:28N 59°20' E 010°31'0 0.0
2017-Aug-14 11:58N 59°20' E 010°31'0 0.0
2017-Aug-14 11:28N 59°20' E 010°31'0 0.0
2017-Aug-14 11:00N 59°20' E 010°31'1 1.5
2017-Aug-14 10:30N 59°20' E 010°32'0 0.1
2017-Aug-14 10:00N 59°20' E 010°32'0 0.0
2017-Aug-14 09:30N 59°20' E 010°32'0 0.0
2017-Aug-14 09:00N 59°20' E 010°32'0 0.0
2017-Aug-14 08:30N 59°20' E 010°32'0 0.1
2017-Aug-14 08:00N 59°20' E 010°32'0 0.1
2017-Aug-14 07:30N 59°20' E 010°32'0 0.0
2017-Aug-14 07:00N 59°20' E 010°32'0 0.0
2017-Aug-14 06:30N 59°20' E 010°32'0 0.0
2017-Aug-14 06:00N 59°20' E 010°32'0 0.0
2017-Aug-14 05:30N 59°20' E 010°32'2 4.2
2017-Aug-14 05:01N 59°18' E 010°33'713.1
2017-Aug-14 04:30N 59°12' E 010°36'612.6
2017-Aug-14 04:01N 59°06' E 010°35'4 7.6
2017-Aug-14 03:30N 59°02' E 010°36'5 9.3
2017-Aug-14 03:01N 58°57' E 010°38'5 9.3
2017-Aug-14 02:30N 58°53' E 010°41'5 9.6
2017-Aug-14 02:01N 58°48' E 010°44'611.9
2017-Aug-14 01:31N 58°43' E 010°47'611.9
2017-Aug-14 01:00N 58°37' E 010°50'612.3
2017-Aug-14 00:30N 58°31' E 010°53'713.2
2017-Aug-14 00:00N 58°25' E 010°57'612.9
2017-Aug-13 23:30N 58°18' E 011°00'612.4
2017-Aug-13 23:00N 58°12' E 011°04'612.0
2017-Aug-13 22:30N 58°07' E 011°07'611.2
2017-Aug-13 21:59N 58°01' E 011°10'611.7
2017-Aug-13 21:29N 57°56' E 011°14'511.5
2017-Aug-13 21:00N 57°50' E 011°16'611.4
2017-Aug-13 20:30N 57°45' E 011°19'611.5
2017-Aug-13 20:00N 57°39' E 011°23'611.3
2017-Aug-13 19:29N 57°34' E 011°27'510.8
2017-Aug-13 19:01N 57°30' E 011°33'611.4
2017-Aug-13 18:30N 57°25' E 011°39'611.5
2017-Aug-13 18:00N 57°20' E 011°45'611.8
2017-Aug-13 17:30N 57°16' E 011°51'612.1
2017-Aug-13 17:00N 57°10' E 011°55'811.8
2017-Aug-13 16:19N 57°02' E 011°60'4911.2
2017-Aug-13 11:56N 56°15' E 012°27'511.1
2017-Aug-13 11:30N 56°11' E 012°30'510.6
2017-Aug-13 11:00N 56°06' E 012°34'5 9.5
2017-Aug-13 10:30N 56°03' E 012°40'5 9.0
2017-Aug-13 10:01N 55°58' E 012°42'510.7
2017-Aug-13 09:31N 55°53' E 012°44'612.0
2017-Aug-13 09:01N 55°47' E 012°43'612.2
2017-Aug-13 08:31N 55°41' E 012°41'510.9
2017-Aug-13 08:01N 55°36' E 012°42'611.5
2017-Aug-13 07:31N 55°30' E 012°43'612.6
2017-Aug-13 07:01N 55°24' E 012°41'611.5
2017-Aug-13 06:30N 55°18' E 012°43'612.5
2017-Aug-13 06:00N 55°16' E 012°53'612.0
2017-Aug-13 05:30N 55°16' E 013°04'612.2
2017-Aug-13 05:00N 55°15' E 013°14'612.4
2017-Aug-13 04:29N 55°15' E 013°25'1112.0
2017-Aug-13 03:34N 55°14' E 013°45'211.8
2017-Aug-13 03:22N 55°14' E 013°49'411.6
2017-Aug-13 03:00N 55°14' E 013°56'611.6
2017-Aug-13 02:30N 55°14' E 014°07'611.3
2017-Aug-13 02:01N 55°14' E 014°16'611.5
2017-Aug-13 01:31N 55°19' E 014°23'611.7
2017-Aug-13 01:00N 55°23' E 014°29'611.7
2017-Aug-13 00:31N 55°27' E 014°36'612.0
2017-Aug-13 00:01N 55°30' E 014°45'612.1
2017-Aug-12 23:30N 55°33' E 014°55'611.9
2017-Aug-12 23:01N 55°36' E 015°04'611.8
2017-Aug-12 22:30N 55°39' E 015°13'611.7
2017-Aug-12 21:59N 55°42' E 015°23'150 9.4
2017-Aug-12 05:54N 57°38' E 018°16'0 0.0
2017-Aug-12 05:30N 57°38' E 018°16'0 0.0
2017-Aug-12 04:57N 57°38' E 018°16'0 0.0
2017-Aug-12 02:03N 57°38' E 018°16'0 0.0
2017-Aug-12 01:54N 57°38' E 018°16'0 0.0
2017-Aug-12 01:30N 57°38' E 018°16'0 0.0
2017-Aug-12 01:00N 57°38' E 018°16'0 0.0
2017-Aug-12 00:30N 57°38' E 018°16'0 0.0
2017-Aug-12 00:00N 57°38' E 018°16'0 0.0
2017-Aug-11 23:30N 57°38' E 018°16'0 0.0
2017-Aug-11 23:00N 57°38' E 018°16'0 0.0
2017-Aug-11 22:27N 57°38' E 018°16'0 0.0
2017-Aug-11 22:00N 57°38' E 018°16'0 0.0
2017-Aug-11 21:30N 57°38' E 018°16'0 0.0
2017-Aug-11 21:00N 57°38' E 018°16'135 7.5
2017-Aug-11 03:04N 55°48' E 015°54'112.1
2017-Aug-11 03:00N 55°47' E 015°53'612.2
2017-Aug-11 02:29N 55°44' E 015°43'612.4
2017-Aug-11 02:00N 55°41' E 015°34'612.3
2017-Aug-11 01:29N 55°38' E 015°24'612.1
2017-Aug-11 01:00N 55°36' E 015°15'612.1
2017-Aug-11 00:31N 55°33' E 015°06'611.9
2017-Aug-11 00:00N 55°30' E 014°56'612.0
2017-Aug-10 23:31N 55°27' E 014°47'612.2
2017-Aug-10 23:00N 55°24' E 014°38'612.1
2017-Aug-10 22:30N 55°19' E 014°31'612.1
2017-Aug-10 22:00N 55°15' E 014°24'611.3
2017-Aug-10 21:30N 55°11' E 014°16'612.3
2017-Aug-10 21:01N 55°11' E 014°06'612.4
2017-Aug-10 20:30N 55°11' E 013°55'612.5
2017-Aug-10 20:00N 55°11' E 013°44'712.6
2017-Aug-10 19:27N 55°11' E 013°32'712.6
2017-Aug-10 18:54N 55°12' E 013°20'812.3
2017-Aug-10 18:17N 55°12' E 013°06'312.3
2017-Aug-10 18:00N 55°13' E 013°00'612.2
2017-Aug-10 17:30N 55°15' E 012°51'612.2
2017-Aug-10 17:00N 55°17' E 012°41'510.1
2017-Aug-10 16:30N 55°22' E 012°39'612.0
2017-Aug-10 16:00N 55°28' E 012°41'5 9.8
2017-Aug-10 15:30N 55°32' E 012°46'4 7.9
2017-Aug-10 15:00N 55°35' E 012°51'4 8.5
2017-Aug-10 14:30N 55°38' E 012°56'510.7
2017-Aug-10 14:00N 55°43' E 012°52'612.1
2017-Aug-10 13:30N 55°48' E 012°47'612.0
2017-Aug-10 13:00N 55°53' E 012°40'510.5
2017-Aug-10 12:30N 55°58' E 012°41'611.7
2017-Aug-10 12:00N 56°04' E 012°37'611.8
2017-Aug-10 11:30N 56°08' E 012°29'611.2
2017-Aug-10 11:00N 56°13' E 012°25'  

Dump ship's entire track history